Time;durP1;ratioP1;P1;durP2;ratioP2;P2;SDS_P1;SDS_P2;PMS_P1;PMS_P2;Temp;Humidity;BMP_temperature;BMP_pressure;BME280_temperature;BME280_humidity;BME280_pressure;Samples;Min_cycle;Max_cycle;Signal;HPM_P1;HPM_P2
2022/09/13 00:02:18;;;;;;;4.03;3.73;;;15.80;99.90;;;;;;5010073;28;20530;-70
2022/09/13 00:04:45;;;;;;;4.53;4.13;;;15.80;99.90;;;;;;5005395;28;20461;-70
2022/09/13 00:07:12;;;;;;;3.83;3.53;;;15.80;99.90;;;;;;5008249;28;20523;-70
2022/09/13 00:09:39;;;;;;;4.03;3.73;;;15.80;99.90;;;;;;5014836;28;20924;-70
2022/09/13 00:12:07;;;;;;;7.20;4.10;;;15.80;99.90;;;;;;5010307;28;20493;-70
2022/09/13 00:14:34;;;;;;;4.13;3.83;;;15.80;99.90;;;;;;5007359;28;20636;-70
2022/09/13 00:17:01;;;;;;;5.30;4.40;;;15.70;99.90;;;;;;5008751;28;20473;-70
2022/09/13 00:19:28;;;;;;;4.30;3.73;;;15.60;99.90;;;;;;5010656;28;20548;-70
2022/09/13 00:21:55;;;;;;;4.27;3.90;;;15.60;99.90;;;;;;5013436;28;20835;-70
2022/09/13 00:24:22;;;;;;;4.87;4.43;;;15.60;99.90;;;;;;5015326;28;20999;-70
2022/09/13 00:26:49;;;;;;;4.33;3.90;;;15.60;99.90;;;;;;5016511;28;21011;-70
2022/09/13 00:29:18;;;;;;;4.63;4.23;;;15.60;99.90;;;;;;5016067;28;20453;-70
2022/09/13 00:31:44;;;;;;;4.60;3.90;;;15.60;99.90;;;;;;5015168;28;21016;-70
2022/09/13 00:34:11;;;;;;;4.00;3.70;;;15.60;99.90;;;;;;5015037;28;20464;-70
2022/09/13 00:36:38;;;;;;;3.60;3.40;;;15.60;99.90;;;;;;5017482;28;20468;-70
2022/09/13 00:39:06;;;;;;;4.57;4.10;;;15.30;99.90;;;;;;5013976;28;20813;-70
2022/09/13 00:41:33;;;;;;;4.67;4.27;;;15.60;99.90;;;;;;4997956;28;20438;-70
2022/09/13 00:44:01;;;;;;;3.97;3.67;;;15.60;99.90;;;;;;5012010;28;20539;-70
2022/09/13 00:46:35;;;;;;;3.43;3.13;;;15.60;99.90;;;;;;5012508;28;20471;-70
2022/09/13 00:49:11;;;;;;;3.93;3.63;;;15.60;99.90;;;;;;5006592;28;20827;-70
2022/09/13 00:51:39;;;;;;;4.03;3.73;;;15.60;99.90;;;;;;5014696;28;20484;-70
2022/09/13 00:54:06;;;;;;;4.20;3.90;;;15.50;99.90;;;;;;5013723;28;20465;-70
2022/09/13 00:56:36;;;;;;;4.27;3.97;;;15.60;99.90;;;;;;5017399;28;20480;-70
2022/09/13 00:59:09;;;;;;;4.93;4.40;;;15.60;99.90;;;;;;5009008;28;20966;-70
2022/09/13 01:01:44;;;;;;;5.00;4.50;;;15.60;99.90;;;;;;5014684;28;20959;-70
2022/09/13 01:04:11;;;;;;;4.60;4.20;;;15.60;99.90;;;;;;5015475;28;20480;-70
2022/09/13 01:06:41;;;;;;;4.77;4.37;;;15.60;99.90;;;;;;5017123;28;20457;-70
2022/09/13 01:09:11;;;;;;;5.00;4.57;;;15.60;99.90;;;;;;5008144;28;20551;-70
2022/09/13 01:11:46;;;;;;;5.53;4.37;;;15.50;99.90;;;;;;5026164;28;20486;-70
2022/09/13 01:14:14;;;;;;;5.13;4.73;;;15.50;99.90;;;;;;5007442;28;20449;-71
2022/09/13 01:16:42;;;;;;;4.17;3.80;;;15.50;99.90;;;;;;5013202;28;20921;-70
2022/09/13 01:19:09;;;;;;;5.13;4.63;;;15.50;99.90;;;;;;5016524;28;20452;-70
2022/09/13 01:22:07;;;;;;;5.40;4.50;;;15.40;99.90;;;;;;5015097;28;20469;-70
2022/09/13 01:25:26;;;;;;;5.00;4.43;;;15.40;99.90;;;;;;5026031;28;20546;-70
2022/09/13 01:28:15;;;;;;;5.00;4.60;;;15.40;99.90;;;;;;4959309;28;20503;-70
2022/09/13 01:30:50;;;;;;;7.23;4.80;;;15.40;99.90;;;;;;5014098;28;20518;-70
2022/09/13 01:33:39;;;;;;;4.43;4.13;;;15.30;99.90;;;;;;5015709;28;20511;-70
2022/09/13 01:36:31;;;;;;;5.50;5.00;;;15.30;99.90;;;;;;5004769;28;20469;-70
2022/09/13 01:39:04;;;;;;;6.90;4.90;;;15.20;99.90;;;;;;5021005;28;21023;-70
2022/09/13 01:41:50;;;;;;;6.00;5.40;;;15.20;99.90;;;;;;5010704;28;20507;-70
2022/09/13 01:44:29;;;;;;;6.03;5.53;;;15.20;99.90;;;;;;5011689;28;20985;-70
2022/09/13 01:47:06;;;;;;;5.80;5.20;;;15.10;99.90;;;;;;5008232;28;20495;-70
2022/09/13 01:49:43;;;;;;;6.03;5.43;;;15.10;99.90;;;;;;5009519;28;20452;-70
2022/09/13 01:52:19;;;;;;;5.77;5.20;;;15.10;99.90;;;;;;5011338;28;20483;-70
2022/09/13 01:54:54;;;;;;;5.93;5.43;;;15.10;99.90;;;;;;5005955;28;20449;-70
2022/09/13 01:57:30;;;;;;;6.43;5.83;;;15.10;99.90;;;;;;5009584;28;20483;-70
2022/09/13 02:00:02;;;;;;;4.97;4.57;;;15.10;99.90;;;;;;5009682;28;20970;-70
2022/09/13 02:02:35;;;;;;;6.30;5.67;;;15.10;99.90;;;;;;5016049;28;20954;-70
2022/09/13 02:05:06;;;;;;;7.50;5.47;;;15.00;99.90;;;;;;5015843;28;20459;-70
2022/09/13 02:07:38;;;;;;;5.60;5.10;;;15.00;99.90;;;;;;5016940;28;20526;-70
2022/09/13 02:10:09;;;;;;;6.07;5.47;;;15.00;99.90;;;;;;5013331;28;20502;-71
2022/09/13 02:12:40;;;;;;;6.33;5.73;;;15.00;99.90;;;;;;4997185;28;21066;-70
2022/09/13 02:15:13;;;;;;;5.40;5.00;;;15.00;99.90;;;;;;5007706;28;20560;-70
2022/09/13 02:17:45;;;;;;;5.90;5.40;;;14.90;99.90;;;;;;5012790;28;20479;-70
2022/09/13 02:20:17;;;;;;;6.80;6.17;;;14.90;99.90;;;;;;5005209;28;20468;-70
2022/09/13 02:22:49;;;;;;;6.37;5.80;;;14.90;99.90;;;;;;5011097;28;20884;-70
2022/09/13 02:25:19;;;;;;;6.90;6.20;;;14.90;99.90;;;;;;5006773;28;20545;-70
2022/09/13 02:27:51;;;;;;;7.37;6.60;;;14.80;99.90;;;;;;5010962;28;20503;-70
2022/09/13 02:30:19;;;;;;;7.70;7.00;;;14.70;99.90;;;;;;5018259;28;20466;-70
2022/09/13 02:32:53;;;;;;;7.53;6.93;;;14.70;99.90;;;;;;5009173;28;20581;-70
2022/09/13 02:35:25;;;;;;;7.43;6.53;;;14.60;99.90;;;;;;5011970;28;20553;-70
2022/09/13 02:38:09;;;;;;;8.80;6.70;;;14.60;99.90;;;;;;5010472;28;20475;-70
2022/09/13 02:40:41;;;;;;;7.77;7.07;;;14.50;99.90;;;;;;4999454;28;20464;-70
2022/09/13 02:43:13;;;;;;;7.93;7.10;;;14.50;99.90;;;;;;5004564;28;20850;-70
2022/09/13 02:45:53;;;;;;;8.70;6.70;;;14.50;99.90;;;;;;4999937;28;20461;-70
2022/09/13 02:48:29;;;;;;;7.00;6.40;;;14.60;99.90;;;;;;5011944;28;20487;-70
2022/09/13 02:51:03;;;;;;;7.13;6.37;;;14.50;99.90;;;;;;5023165;28;20524;-70
2022/09/13 02:53:38;;;;;;;6.90;6.20;;;14.50;99.90;;;;;;5011591;28;20493;-70
2022/09/13 02:56:14;;;;;;;7.10;6.50;;;14.40;99.90;;;;;;5007014;28;20562;-70
2022/09/13 02:58:45;;;;;;;6.90;6.30;;;14.40;99.90;;;;;;5009857;28;20609;-70
2022/09/13 03:01:13;;;;;;;6.90;6.30;;;14.40;99.90;;;;;;4999950;28;20449;-70
2022/09/13 03:03:42;;;;;;;7.50;6.77;;;14.40;99.90;;;;;;5010850;28;20538;-70
2022/09/13 03:06:09;;;;;;;7.37;6.53;;;14.40;99.90;;;;;;5010916;28;21020;-70
2022/09/13 03:08:37;;;;;;;6.97;6.27;;;14.30;99.90;;;;;;5011184;28;20460;-70
2022/09/13 03:11:13;;;;;;;7.80;7.10;;;14.30;99.90;;;;;;5010305;28;20596;-70
2022/09/13 03:13:58;;;;;;;6.70;6.10;;;14.30;99.90;;;;;;5010649;28;20482;-70
2022/09/13 03:16:42;;;;;;;8.40;6.33;;;14.30;99.90;;;;;;5000358;28;20538;-70
2022/09/13 03:19:24;;;;;;;8.93;6.57;;;14.20;99.90;;;;;;5006116;28;20511;-70
2022/09/13 03:22:05;;;;;;;7.33;6.63;;;14.20;99.90;;;;;;5010456;28;20463;-70
2022/09/13 03:24:40;;;;;;;6.97;6.37;;;14.20;99.90;;;;;;5010482;28;20461;-70
2022/09/13 03:27:18;;;;;;;8.70;6.43;;;14.20;99.90;;;;;;5005044;28;20997;-70
2022/09/13 03:29:55;;;;;;;8.30;7.20;;;14.20;99.90;;;;;;5006437;28;20468;-70
2022/09/13 03:32:30;;;;;;;6.80;6.30;;;14.20;99.90;;;;;;5006697;28;20523;-70
2022/09/13 03:35:07;;;;;;;7.50;6.80;;;14.20;99.90;;;;;;4999900;28;20498;-70
2022/09/13 03:37:45;;;;;;;7.80;7.10;;;14.20;99.90;;;;;;5011432;28;20545;-70
2022/09/13 03:40:15;;;;;;;7.83;7.07;;;14.20;99.90;;;;;;5005837;28;20555;-70
2022/09/13 03:42:47;;;;;;;7.30;6.70;;;14.20;99.90;;;;;;5012905;28;20556;-70
2022/09/13 03:45:17;;;;;;;7.47;6.80;;;14.20;99.90;;;;;;5001533;28;20551;-70
2022/09/13 03:47:46;;;;;;;8.40;7.50;;;14.20;99.90;;;;;;5018498;28;20481;-70
2022/09/13 03:50:19;;;;;;;7.77;7.07;;;14.20;99.90;;;;;;5013730;28;20460;-71
2022/09/13 03:52:48;;;;;;;7.90;7.10;;;14.20;99.90;;;;;;5006518;28;20537;-70
2022/09/13 03:55:18;;;;;;;9.03;7.57;;;14.20;99.90;;;;;;5005689;28;20560;-71
2022/09/13 03:57:45;;;;;;;8.57;6.93;;;14.20;99.90;;;;;;5002856;28;20474;-70
2022/09/13 04:00:14;;;;;;;7.87;6.60;;;14.20;99.90;;;;;;5007016;28;20463;-70
2022/09/13 04:02:41;;;;;;;7.63;6.90;;;14.20;99.90;;;;;;5014000;28;20543;-70
2022/09/13 04:05:08;;;;;;;8.03;7.23;;;14.20;99.90;;;;;;5029374;28;20450;-70
2022/09/13 04:07:36;;;;;;;7.77;7.00;;;14.20;99.90;;;;;;5013000;28;20486;-70
2022/09/13 04:10:04;;;;;;;7.50;6.70;;;14.20;99.90;;;;;;5019152;28;20579;-70
2022/09/13 04:12:31;;;;;;;7.60;6.80;;;14.20;99.90;;;;;;5009330;28;20485;-70
2022/09/13 04:14:59;;;;;;;8.67;6.73;;;14.20;99.90;;;;;;5014633;28;20825;-70
2022/09/13 04:17:26;;;;;;;7.77;6.80;;;14.20;99.90;;;;;;5010349;28;20519;-70
2022/09/13 04:19:53;;;;;;;10.63;6.80;;;14.20;99.90;;;;;;5005171;28;20457;-70
2022/09/13 04:22:20;;;;;;;7.87;6.60;;;14.20;99.90;;;;;;5008089;28;20478;-70
2022/09/13 04:24:48;;;;;;;8.13;7.33;;;14.20;99.90;;;;;;5005992;28;20499;-71
2022/09/13 04:27:15;;;;;;;7.43;6.70;;;14.10;99.90;;;;;;5011934;28;20586;-69
2022/09/13 04:29:42;;;;;;;7.33;6.63;;;14.10;99.90;;;;;;5004585;28;20967;-70
2022/09/13 04:32:09;;;;;;;6.63;6.03;;;14.10;99.90;;;;;;5009159;28;20451;-70
2022/09/13 04:34:36;;;;;;;8.63;6.90;;;14.00;99.90;;;;;;5008236;28;20459;-70
2022/09/13 04:37:04;;;;;;;9.63;6.70;;;14.00;99.90;;;;;;5017132;28;20473;-68
2022/09/13 04:39:31;;;;;;;8.60;6.93;;;14.00;99.90;;;;;;5011201;28;20460;-68
2022/09/13 04:41:59;;;;;;;6.87;6.27;;;14.00;99.90;;;;;;5018289;28;20450;-68
2022/09/13 04:44:26;;;;;;;7.93;6.77;;;14.00;99.90;;;;;;5010728;28;20532;-69
2022/09/13 04:46:53;;;;;;;7.53;6.70;;;13.90;99.90;;;;;;5008086;28;20473;-67
2022/09/13 04:49:20;;;;;;;7.30;6.60;;;14.00;99.90;;;;;;5012933;28;20454;-67
2022/09/13 04:51:48;;;;;;;6.63;5.70;;;14.00;99.90;;;;;;5004520;28;20466;-70
2022/09/13 04:54:15;;;;;;;6.40;5.90;;;14.00;99.90;;;;;;5006470;28;20491;-66
2022/09/13 04:56:43;;;;;;;6.97;6.37;;;14.00;99.90;;;;;;5007451;28;20477;-66
2022/09/13 04:59:12;;;;;;;8.50;6.47;;;14.10;99.90;;;;;;5011255;28;20465;-67
2022/09/13 05:01:40;;;;;;;5.90;5.40;;;14.10;99.90;;;;;;5005992;28;20454;-69
2022/09/13 05:04:08;;;;;;;6.90;6.30;;;14.20;99.90;;;;;;5007303;28;20810;-69
2022/09/13 05:06:36;;;;;;;6.70;5.83;;;14.20;99.90;;;;;;5007625;28;20474;-70
2022/09/13 05:09:04;;;;;;;8.07;5.93;;;14.30;99.90;;;;;;5011642;28;20518;-71
2022/09/13 05:11:31;;;;;;;8.10;5.90;;;14.40;99.90;;;;;;5011716;28;20465;-70
2022/09/13 05:14:00;;;;;;;9.20;5.63;;;14.40;99.90;;;;;;5011171;28;20500;-70
2022/09/13 05:16:30;;;;;;;5.90;5.33;;;14.50;99.90;;;;;;5010569;28;20581;-69
2022/09/13 05:18:57;;;;;;;7.30;5.80;;;14.50;99.90;;;;;;5010264;28;20468;-69
2022/09/13 05:21:24;;;;;;;5.30;4.80;;;14.70;99.90;;;;;;5015152;28;20463;-69
2022/09/13 05:23:52;;;;;;;5.87;5.30;;;14.60;99.90;;;;;;5017604;28;20487;-69
2022/09/13 05:26:20;;;;;;;7.50;5.80;;;14.60;99.90;;;;;;5010026;28;20496;-69
2022/09/13 05:28:48;;;;;;;6.73;6.03;;;14.60;99.90;;;;;;5022593;28;20495;-69
2022/09/13 05:31:17;;;;;;;6.00;5.50;;;14.60;99.90;;;;;;5009766;28;20544;-70
2022/09/13 05:33:48;;;;;;;9.80;5.60;;;14.50;99.90;;;;;;5011473;28;20547;-70
2022/09/13 05:36:15;;;;;;;6.27;5.67;;;14.50;99.90;;;;;;5009704;28;20813;-70
2022/09/13 05:38:42;;;;;;;7.27;6.57;;;14.50;99.90;;;;;;5019397;28;20891;-70
2022/09/13 05:41:10;;;;;;;7.30;6.60;;;14.50;99.90;;;;;;5010283;28;21378;-70
2022/09/13 05:43:38;;;;;;;6.93;6.07;;;14.50;99.90;;;;;;5015394;28;20493;-70
2022/09/13 05:46:06;;;;;;;7.43;5.77;;;14.50;99.90;;;;;;5012063;28;20563;-70
2022/09/13 05:48:35;;;;;;;6.77;6.13;;;14.20;99.90;;;;;;5010684;28;20559;-70
2022/09/13 05:51:09;;;;;;;7.37;6.67;;;14.50;99.90;;;;;;5005737;28;20463;-70
2022/09/13 05:53:38;;;;;;;6.77;6.07;;;14.40;99.90;;;;;;5010107;28;20490;-70
2022/09/13 05:56:06;;;;;;;7.03;6.33;;;14.40;99.90;;;;;;5010051;28;21067;-70
2022/09/13 05:58:33;;;;;;;7.60;5.77;;;14.40;99.90;;;;;;5010353;28;22298;-70
2022/09/13 06:01:00;;;;;;;6.60;6.03;;;14.40;99.90;;;;;;5008600;28;20542;-70
2022/09/13 06:03:28;;;;;;;6.40;5.90;;;14.40;99.90;;;;;;5007558;28;20488;-70
2022/09/13 06:05:56;;;;;;;6.47;5.87;;;14.50;99.90;;;;;;5007058;28;20501;-69
2022/09/13 06:08:27;;;;;;;7.40;6.30;;;14.50;99.90;;;;;;5006625;28;20494;-70
2022/09/13 06:10:56;;;;;;;6.73;5.87;;;14.50;99.90;;;;;;5004076;28;20513;-70
2022/09/13 06:13:23;;;;;;;5.70;5.20;;;14.80;99.90;;;;;;5008317;28;20507;-70
2022/09/13 06:15:50;;;;;;;6.63;6.00;;;14.70;99.90;;;;;;5012001;28;20511;-70
2022/09/13 06:18:17;;;;;;;5.80;5.23;;;14.70;99.90;;;;;;5008479;28;20545;-70
2022/09/13 06:20:44;;;;;;;6.17;5.40;;;14.80;99.90;;;;;;5009980;28;20456;-70
2022/09/13 06:23:11;;;;;;;6.37;5.80;;;14.90;99.90;;;;;;5008178;28;20462;-70
2022/09/13 06:25:40;;;;;;;6.07;5.53;;;14.80;99.90;;;;;;5010245;28;20485;-70
2022/09/13 06:28:07;;;;;;;7.63;5.90;;;14.80;99.90;;;;;;5008656;28;20551;-70
2022/09/13 06:30:34;;;;;;;6.00;5.47;;;14.80;99.90;;;;;;5015340;28;20487;-70
2022/09/13 06:33:01;;;;;;;6.50;5.60;;;14.70;99.90;;;;;;5009590;28;20484;-70
2022/09/13 06:35:28;;;;;;;6.23;5.27;;;14.70;99.90;;;;;;5010269;28;20554;-70
2022/09/13 06:37:57;;;;;;;6.07;5.47;;;14.70;99.90;;;;;;5014236;28;20847;-70
2022/09/13 06:40:24;;;;;;;7.00;6.30;;;14.70;99.90;;;;;;5012056;28;20459;-71
2022/09/13 06:42:53;;;;;;;5.80;5.30;;;14.60;99.90;;;;;;5005656;28;20548;-72
2022/09/13 06:45:20;;;;;;;6.37;5.70;;;14.60;99.90;;;;;;5017274;28;20474;-70
2022/09/13 06:47:47;;;;;;;6.20;5.60;;;14.70;99.90;;;;;;5011452;28;20854;-70
2022/09/13 06:50:14;;;;;;;6.30;5.20;;;14.80;99.90;;;;;;5010305;28;20456;-70
2022/09/13 06:52:41;;;;;;;7.70;6.40;;;15.00;99.90;;;;;;5007951;28;20570;-70
2022/09/13 06:55:09;;;;;;;6.53;5.80;;;15.20;99.90;;;;;;5008391;28;20485;-70
2022/09/13 06:57:36;;;;;;;6.13;5.53;;;15.40;99.90;;;;;;5008974;28;20460;-70
2022/09/13 07:00:05;;;;;;;7.13;6.43;;;15.50;99.90;;;;;;5009619;28;20835;-70
2022/09/13 07:02:32;;;;;;;7.37;6.43;;;15.40;99.90;;;;;;5007554;28;20974;-70
2022/09/13 07:04:59;;;;;;;7.53;6.00;;;15.80;99.90;;;;;;5004824;28;20474;-70
2022/09/13 07:07:26;;;;;;;6.70;6.00;;;16.10;99.90;;;;;;5006970;28;20465;-79
2022/09/13 07:09:53;;;;;;;9.07;6.63;;;16.20;99.90;;;;;;5010518;28;20483;-70
2022/09/13 07:12:20;;;;;;;6.60;5.73;;;16.40;99.90;;;;;;5001098;28;20457;-70
2022/09/13 07:14:47;;;;;;;9.77;6.50;;;16.70;99.90;;;;;;5011679;28;20488;-71
2022/09/13 07:17:15;;;;;;;7.70;5.47;;;16.90;99.90;;;;;;5009472;28;20461;-70
2022/09/13 07:19:42;;;;;;;6.47;5.87;;;17.10;99.90;;;;;;5012480;28;20540;-70
2022/09/13 07:22:09;;;;;;;6.27;5.67;;;17.20;99.90;;;;;;5029971;28;20989;-71
2022/09/13 07:24:36;;;;;;;7.40;5.30;;;17.30;99.90;;;;;;5032122;28;21046;-71
2022/09/13 07:27:03;;;;;;;6.00;5.40;;;17.40;99.90;;;;;;5016161;28;20495;-71
2022/09/13 07:29:30;;;;;;;5.97;5.37;;;17.30;99.90;;;;;;5012237;28;20442;-71
2022/09/13 07:31:57;;;;;;;5.40;4.67;;;17.30;99.90;;;;;;5010248;28;20968;-70
2022/09/13 07:34:27;;;;;;;7.90;5.20;;;17.30;99.90;;;;;;5012063;28;20900;-71
2022/09/13 07:36:54;;;;;;;5.50;4.70;;;17.40;99.90;;;;;;4997847;28;20474;-71
2022/09/13 07:39:22;;;;;;;7.57;4.50;;;17.60;99.90;;;;;;5005666;28;20553;-71
2022/09/13 07:41:49;;;;;;;5.83;4.40;;;17.90;99.90;;;;;;5029218;28;20551;-71
2022/09/13 07:44:16;;;;;;;5.30;4.80;;;18.20;99.90;;;;;;5017052;28;20449;-71
2022/09/13 07:46:43;;;;;;;5.50;4.70;;;18.40;99.90;;;;;;5009404;28;20567;-71
2022/09/13 07:49:11;;;;;;;7.57;4.87;;;18.60;99.90;;;;;;5012384;28;20442;-71
2022/09/13 07:51:41;;;;;;;5.70;4.50;;;18.80;99.90;;;;;;5008114;28;20951;-71
2022/09/13 07:54:12;;;;;;;4.47;3.90;;;19.00;99.90;;;;;;5000534;28;20577;-70
2022/09/13 07:56:40;;;;;;;5.83;4.17;;;18.80;99.90;;;;;;5007403;28;20837;-70
2022/09/13 07:59:11;;;;;;;5.00;3.97;;;18.70;99.90;;;;;;5012070;28;20449;-71
2022/09/13 08:01:40;;;;;;;4.57;4.00;;;18.90;99.90;;;;;;5010463;28;20592;-71
2022/09/13 08:04:09;;;;;;;6.10;4.33;;;19.10;99.90;;;;;;5012042;28;20477;-71
2022/09/13 08:06:38;;;;;;;4.53;3.90;;;19.30;99.90;;;;;;5010195;28;20572;-71
2022/09/13 08:09:08;;;;;;;5.23;3.60;;;19.40;99.90;;;;;;5011622;28;20443;-71
2022/09/13 08:11:37;;;;;;;3.43;3.13;;;19.50;99.90;;;;;;5010450;28;20512;-71
2022/09/13 08:14:05;;;;;;;3.90;3.27;;;19.70;99.90;;;;;;5010715;28;20480;-71
2022/09/13 08:16:33;;;;;;;5.00;3.70;;;20.00;99.90;;;;;;5010667;28;20623;-71
2022/09/13 08:19:01;;;;;;;2.97;2.67;;;20.20;99.90;;;;;;5011374;28;20463;-71
2022/09/13 08:21:32;;;;;;;3.33;3.07;;;20.30;99.90;;;;;;5010048;28;20443;-71
2022/09/13 08:23:59;;;;;;;5.47;3.20;;;20.30;99.90;;;;;;4991774;28;20492;-71
2022/09/13 08:26:28;;;;;;;3.00;2.70;;;20.20;99.90;;;;;;5000102;28;20468;-71
2022/09/13 08:28:57;;;;;;;3.10;2.80;;;20.00;99.90;;;;;;5011655;28;20572;-71
2022/09/13 08:31:24;;;;;;;2.90;2.70;;;20.00;99.90;;;;;;5010351;28;20437;-71
2022/09/13 08:33:52;;;;;;;7.60;2.97;;;20.30;99.90;;;;;;5011504;28;20498;-72
2022/09/13 08:36:19;;;;;;;3.00;2.80;;;20.60;99.90;;;;;;5012394;28;20511;-71
2022/09/13 08:38:48;;;;;;;4.00;3.70;;;20.90;99.90;;;;;;5011324;28;20475;-71
2022/09/13 08:42:06;;;;;;;4.00;2.97;;;21.20;99.90;;;;;;5010312;28;20461;-72
2022/09/13 08:44:38;;;;;;;3.70;3.17;;;21.50;99.90;;;;;;4935344;29;20451;-72
2022/09/13 08:47:24;;;;;;;3.83;3.37;;;21.90;99.90;;;;;;4937006;29;20577;-74
2022/09/13 08:50:01;;;;;;;2.80;2.50;;;22.10;99.90;;;;;;4992487;28;20871;-71
2022/09/13 08:52:31;;;;;;;3.07;2.77;;;22.30;99.90;;;;;;5014575;28;20441;-71
2022/09/13 08:55:01;;;;;;;3.10;2.80;;;22.50;99.90;;;;;;5017513;28;20583;-71
2022/09/13 08:57:35;;;;;;;3.20;2.87;;;22.70;99.90;;;;;;5014744;28;20448;-70
2022/09/13 09:00:12;;;;;;;3.40;2.30;;;22.90;99.90;;;;;;5028335;28;20459;-71
2022/09/13 09:02:57;;;;;;;3.53;2.30;;;23.10;99.90;;;;;;5034853;28;20442;-71
2022/09/13 09:05:26;;;;;;;3.10;2.27;;;23.30;99.90;;;;;;5015154;28;21096;-70
2022/09/13 09:07:58;;;;;;;3.33;2.40;;;23.20;99.90;;;;;;5014606;28;20457;-71
2022/09/13 09:10:31;;;;;;;3.53;2.70;;;23.30;99.90;;;;;;5020685;28;20892;-71
2022/09/13 09:13:02;;;;;;;3.60;2.80;;;23.40;99.90;;;;;;5014760;28;20440;-71
2022/09/13 09:15:36;;;;;;;2.70;2.40;;;23.30;99.90;;;;;;5013279;28;20532;-71
2022/09/13 09:18:09;;;;;;;3.40;3.00;;;23.30;99.90;;;;;;5014766;28;20445;-71
2022/09/13 09:20:40;;;;;;;3.30;2.50;;;23.40;99.90;;;;;;5013756;28;20952;-71
2022/09/13 09:23:14;;;;;;;3.93;2.70;;;23.50;99.90;;;;;;5013622;28;20437;-71
2022/09/13 09:25:41;;;;;;;3.17;2.77;;;23.70;99.90;;;;;;5031471;28;20523;-70
2022/09/13 09:28:12;;;;;;;2.73;2.53;;;23.90;99.90;;;;;;5022001;28;20493;-72
2022/09/13 09:30:49;;;;;;;3.20;2.90;;;24.30;99.90;;;;;;4995192;28;20452;-71
2022/09/13 09:33:43;;;;;;;3.47;2.50;;;24.60;99.90;;;;;;4996268;28;20488;-71
2022/09/13 09:36:18;;;;;;;2.93;2.63;;;24.60;99.90;;;;;;5014049;28;20519;-71
2022/09/13 09:38:45;;;;;;;4.03;2.20;;;24.70;99.90;;;;;;5013997;28;20539;-70
2022/09/13 09:41:25;;;;;;;2.60;2.20;;;24.90;99.90;;;;;;5013634;28;20457;-70
2022/09/13 09:43:59;;;;;;;3.10;2.70;;;24.90;99.90;;;;;;5027036;28;20559;-71
2022/09/13 09:46:30;;;;;;;2.40;2.17;;;25.00;99.90;;;;;;5013134;28;20511;-71
2022/09/13 09:50:07;;;;;;;2.83;2.40;;;25.10;99.90;;;;;;4994683;28;20957;-71
2022/09/13 09:51:55;;;;;;;2.33;2.03;;;25.40;99.90;;;;;;5010057;28;20820;-71
2022/09/13 09:54:24;;;;;;;2.87;2.03;;;25.60;99.90;;;;;;5012385;28;20567;-71
2022/09/13 09:56:55;;;;;;;1.97;1.77;;;25.80;99.90;;;;;;5004590;28;20453;-71
2022/09/13 09:59:27;;;;;;;2.90;1.70;;;25.90;99.90;;;;;;5003089;28;20457;-71
2022/09/13 10:01:56;;;;;;;2.10;2.00;;;25.90;99.90;;;;;;5024113;28;20531;-71
2022/09/13 10:04:25;;;;;;;2.30;2.10;;;25.70;99.90;;;;;;5023881;28;20516;-71
2022/09/13 10:07:11;;;;;;;1.80;1.70;;;25.90;99.90;;;;;;5013534;28;20507;-72
2022/09/13 10:09:39;;;;;;;2.53;2.33;;;25.90;99.90;;;;;;5022464;28;20488;-72
2022/09/13 10:12:07;;;;;;;2.10;1.90;;;26.20;99.90;;;;;;5012808;28;20487;-71
2022/09/13 10:14:39;;;;;;;2.70;1.70;;;26.50;99.90;;;;;;5012751;28;20484;-72
2022/09/13 10:17:17;;;;;;;1.90;1.80;;;26.70;99.90;;;;;;5013988;28;20443;-72
2022/09/13 10:19:57;;;;;;;3.07;2.13;;;26.80;99.90;;;;;;5015019;28;20483;-72
2022/09/13 10:22:25;;;;;;;3.03;2.00;;;27.40;99.90;;;;;;5012807;28;20974;-72
2022/09/13 10:24:53;;;;;;;1.97;1.87;;;27.90;99.90;;;;;;5015443;28;20492;-71
2022/09/13 10:27:25;;;;;;;2.27;2.17;;;28.20;98.20;;;;;;5014061;28;20464;-72
2022/09/13 10:29:58;;;;;;;2.30;2.07;;;28.20;96.80;;;;;;5012671;28;20453;-72
2022/09/13 10:32:28;;;;;;;4.77;2.30;;;28.30;97.50;;;;;;5012522;28;20520;-72
2022/09/13 10:35:01;;;;;;;2.23;2.03;;;28.50;96.90;;;;;;5012297;28;20802;-72
2022/09/13 10:37:30;;;;;;;1.90;1.80;;;28.40;96.70;;;;;;5013138;28;21019;-72
2022/09/13 10:40:06;;;;;;;1.80;1.70;;;28.80;95.20;;;;;;5020386;28;20555;-72
2022/09/13 10:42:33;;;;;;;2.03;1.90;;;28.90;95.20;;;;;;5011592;28;20456;-72
2022/09/13 10:45:02;;;;;;;1.90;1.80;;;29.20;95.20;;;;;;5029286;28;20515;-72
2022/09/13 10:47:34;;;;;;;1.70;1.60;;;29.50;90.80;;;;;;5032969;28;20983;-72
2022/09/13 10:50:20;;;;;;;2.70;1.60;;;29.60;91.30;;;;;;5022526;28;20495;-72
2022/09/13 10:52:48;;;;;;;1.80;1.70;;;29.70;90.40;;;;;;4993396;28;20574;-72
2022/09/13 10:55:27;;;;;;;2.93;1.50;;;29.90;90.60;;;;;;5011190;28;20488;-72
2022/09/13 10:58:12;;;;;;;3.13;1.63;;;30.10;90.40;;;;;;5012901;28;20806;-72
2022/09/13 11:00:53;;;;;;;1.27;1.17;;;30.10;90.10;;;;;;5015054;28;20488;-72
2022/09/13 11:03:41;;;;;;;1.43;1.20;;;30.30;87.20;;;;;;5012013;28;20449;-72
2022/09/13 11:06:19;;;;;;;1.40;1.30;;;30.70;85.30;;;;;;5011847;28;20551;-72
2022/09/13 11:08:53;;;;;;;1.93;1.27;;;31.10;81.00;;;;;;5012469;28;20433;-72
2022/09/13 11:11:25;;;;;;;1.23;1.13;;;30.80;79.20;;;;;;5017652;28;20555;-72
2022/09/13 11:14:08;;;;;;;1.47;1.10;;;30.80;79.90;;;;;;5011892;28;20968;-72
2022/09/13 11:16:48;;;;;;;1.70;1.10;;;31.00;76.20;;;;;;4993148;28;21015;-72
2022/09/13 11:19:36;;;;;;;1.30;1.20;;;31.50;75.40;;;;;;4995136;28;20783;-72
2022/09/13 11:22:27;;;;;;;1.40;1.30;;;31.50;76.30;;;;;;5015089;28;20532;-72
2022/09/13 11:25:05;;;;;;;1.30;1.20;;;31.70;74.70;;;;;;5013152;28;20480;-72
2022/09/13 11:27:42;;;;;;;1.30;1.10;;;31.80;74.10;;;;;;5029029;28;20960;-72
2022/09/13 11:30:15;;;;;;;1.30;1.20;;;31.30;71.40;;;;;;5019089;28;20893;-72
2022/09/13 11:32:54;;;;;;;2.63;1.40;;;30.80;73.10;;;;;;5011897;28;20524;-72
2022/09/13 11:35:36;;;;;;;1.47;1.37;;;30.30;72.60;;;;;;5005215;28;20575;-72
2022/09/13 11:38:16;;;;;;;2.20;1.23;;;30.10;75.10;;;;;;5008823;28;20460;-73
2022/09/13 11:40:51;;;;;;;2.20;1.47;;;30.30;78.50;;;;;;5004207;28;20552;-72
2022/09/13 11:43:37;;;;;;;1.83;1.30;;;30.80;78.10;;;;;;5011304;28;20605;-72
2022/09/13 11:46:14;;;;;;;1.30;1.10;;;31.50;75.60;;;;;;5011692;28;21015;-73
2022/09/13 11:49:03;;;;;;;1.77;1.50;;;32.40;71.80;;;;;;5016236;28;20456;-73
2022/09/13 11:51:43;;;;;;;1.63;1.30;;;33.20;69.50;;;;;;5019793;28;20507;-73
2022/09/13 11:54:21;;;;;;;1.20;1.10;;;34.00;67.20;;;;;;5011229;28;20523;-73
2022/09/13 11:56:51;;;;;;;2.10;1.20;;;34.40;60.00;;;;;;5012294;28;20580;-72
2022/09/13 11:59:27;;;;;;;1.53;1.43;;;34.70;62.70;;;;;;5019343;28;20456;-72
2022/09/13 12:01:57;;;;;;;1.67;1.10;;;34.80;62.40;;;;;;5016537;28;20547;-73
2022/09/13 12:04:30;;;;;;;1.47;1.13;;;34.90;62.80;;;;;;5010701;28;20580;-73
2022/09/13 12:07:02;;;;;;;1.60;1.20;;;35.00;60.00;;;;;;5010796;28;20512;-73
2022/09/13 12:09:35;;;;;;;1.30;1.20;;;35.00;60.40;;;;;;5012259;28;20886;-73
2022/09/13 12:12:05;;;;;;;1.43;1.30;;;34.90;59.10;;;;;;5015477;28;20986;-72
2022/09/13 12:14:42;;;;;;;4.20;3.90;;;34.80;60.60;;;;;;5012061;28;20468;-73
2022/09/13 12:17:23;;;;;;;2.97;2.40;;;34.90;59.80;;;;;;5008569;28;20809;-73
2022/09/13 12:19:54;;;;;;;1.60;0.97;;;35.00;60.40;;;;;;5010506;28;20540;-72
2022/09/13 12:22:24;;;;;;;2.30;1.13;;;35.10;58.60;;;;;;5016510;28;20551;-73
2022/09/13 12:24:54;;;;;;;1.93;1.30;;;34.80;58.90;;;;;;5031324;28;20468;-72
2022/09/13 12:27:26;;;;;;;1.33;1.20;;;34.80;57.10;;;;;;5023010;28;20453;-72
2022/09/13 12:29:57;;;;;;;2.10;1.13;;;34.50;57.50;;;;;;5023212;28;20496;-72
2022/09/13 12:32:24;;;;;;;1.20;1.10;;;34.30;57.90;;;;;;5023345;28;20459;-72
2022/09/13 12:34:58;;;;;;;1.97;1.27;;;34.20;57.00;;;;;;5014053;28;20507;-72
2022/09/13 12:37:50;;;;;;;1.13;1.00;;;33.60;56.90;;;;;;5026679;28;21256;-72
2022/09/13 12:40:38;;;;;;;1.40;1.30;;;32.90;57.60;;;;;;5025420;28;20452;-71
2022/09/13 12:43:20;;;;;;;1.20;1.10;;;31.80;60.30;;;;;;5030557;28;20919;-72
2022/09/13 12:46:07;;;;;;;2.20;1.57;;;30.90;59.50;;;;;;5010667;28;20476;-71
2022/09/13 12:48:49;;;;;;;1.43;1.33;;;30.30;60.40;;;;;;4996335;28;20540;-71
2022/09/13 12:51:30;;;;;;;1.57;1.20;;;30.20;60.50;;;;;;5011198;28;20433;-71
2022/09/13 12:54:22;;;;;;;1.50;1.10;;;30.60;61.70;;;;;;5009973;28;20499;-72
2022/09/13 12:57:00;;;;;;;1.47;1.20;;;31.20;59.00;;;;;;5011265;28;20864;-72
2022/09/13 12:59:41;;;;;;;1.20;1.10;;;31.70;57.90;;;;;;5016991;28;20525;-72
2022/09/13 13:02:26;;;;;;;1.67;1.20;;;32.00;57.10;;;;;;5025565;28;20474;-72
2022/09/13 13:04:58;;;;;;;2.27;1.20;;;32.50;56.50;;;;;;5031067;28;20955;-73
2022/09/13 13:07:27;;;;;;;1.20;1.00;;;32.70;57.00;;;;;;5010114;28;20941;-72
2022/09/13 13:09:57;;;;;;;2.40;1.07;;;32.60;56.70;;;;;;5009275;28;20492;-73
2022/09/13 13:12:31;;;;;;;2.80;0.90;;;32.60;55.30;;;;;;5010869;28;20499;-73
2022/09/13 13:14:59;;;;;;;1.67;1.47;;;32.60;55.50;;;;;;5010827;28;20548;-72